Time;durP1;ratioP1;P1;durP2;ratioP2;P2;SDS_P1;SDS_P2;PMS_P1;PMS_P2;Temp;Humidity;BMP_temperature;BMP_pressure;BME280_temperature;BME280_humidity;BME280_pressure;Samples;Min_cycle;Max_cycle;Signal;HPM_P1;HPM_P2
2023/10/21 00:00:27;;;;;;;0.10;0.10;;;;;;;-144.59;100.00;63158.22;5158017;27;20207;-58
2023/10/21 00:03:15;;;;;;;0.10;0.10;;;;;;;-144.59;100.00;63158.22;5157715;27;20185;-58
2023/10/21 00:06:03;;;;;;;0.10;0.10;;;;;;;-144.59;100.00;63158.22;5156505;27;20563;-57
2023/10/21 00:08:50;;;;;;;0.10;0.10;;;;;;;-144.59;100.00;63158.22;5157785;27;20262;-57
2023/10/21 00:11:37;;;;;;;0.10;0.10;;;;;;;-144.59;100.00;63158.22;5157766;27;20212;-58
2023/10/21 00:14:24;;;;;;;0.10;0.10;;;;;;;-144.59;100.00;63158.22;5157692;27;20192;-57
2023/10/21 00:17:11;;;;;;;0.10;0.10;;;;;;;-144.59;100.00;63158.22;5157463;27;20193;-58
2023/10/21 00:19:59;;;;;;;0.10;0.10;;;;;;;-144.59;100.00;63158.22;5156176;27;20311;-58
2023/10/21 00:22:46;;;;;;;0.10;0.10;;;;;;;-144.59;100.00;63158.22;5157371;27;20199;-58
2023/10/21 00:25:34;;;;;;;0.10;0.10;;;;;;;-144.59;100.00;63158.22;5157229;27;20184;-57
2023/10/21 00:28:20;;;;;;;0.10;0.10;;;;;;;-144.59;100.00;63158.22;5157316;27;20184;-57
2023/10/21 00:31:07;;;;;;;0.10;0.10;;;;;;;-144.59;100.00;63158.22;5141198;27;20192;-58
2023/10/21 00:33:55;;;;;;;0.10;0.10;;;;;;;-144.59;100.00;63158.22;5156678;27;20236;-57
2023/10/21 00:36:43;;;;;;;0.10;0.10;;;;;;;-144.59;100.00;63158.22;5155928;27;20204;-58
2023/10/21 00:39:34;;;;;;;0.10;0.10;;;;;;;-144.59;100.00;63158.22;5141150;27;20212;-58
2023/10/21 00:42:21;;;;;;;0.10;0.10;;;;;;;-144.59;100.00;63158.22;5156887;27;20192;-58
2023/10/21 00:45:09;;;;;;;0.10;0.10;;;;;;;-144.59;100.00;63158.22;5156832;27;20273;-58
2023/10/21 00:47:56;;;;;;;0.10;0.10;;;;;;;-144.59;100.00;63158.22;5156888;27;20196;-58
2023/10/21 00:50:43;;;;;;;0.10;0.10;;;;;;;-144.59;100.00;63158.22;5155655;27;20196;-58
2023/10/21 00:53:32;;;;;;;0.10;0.10;;;;;;;-144.59;100.00;63158.22;5156495;27;20755;-58
2023/10/21 00:56:19;;;;;;;0.07;0.07;;;;;;;-144.59;100.00;63158.22;5156643;27;20197;-58
2023/10/21 00:59:06;;;;;;;0.10;0.10;;;;;;;-144.59;100.00;63158.22;5141091;27;20188;-58
2023/10/21 01:01:53;;;;;;;0.10;0.10;;;;;;;-144.59;100.00;63158.22;5140815;27;20189;-58
2023/10/21 01:04:40;;;;;;;0.10;0.10;;;;;;;-144.59;100.00;63158.22;5156390;27;20615;-58
2023/10/21 01:07:27;;;;;;;0.03;0.03;;;;;;;-144.59;100.00;63158.22;5140891;27;20192;-58
2023/10/21 01:10:15;;;;;;;0.10;0.10;;;;;;;-144.59;100.00;63158.22;5155576;27;20255;-58
2023/10/21 01:13:02;;;;;;;0.10;0.10;;;;;;;-144.59;100.00;63158.22;5140180;27;20216;-58
2023/10/21 01:15:49;;;;;;;0.10;0.10;;;;;;;-144.59;100.00;63158.22;5156409;27;20246;-57
2023/10/21 01:18:38;;;;;;;0.10;0.10;;;;;;;-144.59;100.00;63158.22;5140723;27;20197;-58
2023/10/21 01:21:25;;;;;;;0.10;0.10;;;;;;;-144.59;100.00;63158.22;5154637;27;20287;-58
2023/10/21 01:24:13;;;;;;;0.10;0.10;;;;;;;-144.59;100.00;63158.22;5140506;27;20188;-58
2023/10/21 01:27:00;;;;;;;0.10;0.10;;;;;;;-144.59;100.00;63158.22;5155942;27;20188;-57
2023/10/21 01:29:47;;;;;;;0.00;0.00;;;;;;;-144.59;100.00;63158.22;5155762;27;20251;-58
2023/10/21 01:32:34;;;;;;;0.10;0.10;;;;;;;-144.59;100.00;63158.22;5155843;27;20193;-58
2023/10/21 01:35:21;;;;;;;0.10;0.10;;;;;;;-144.59;100.00;63158.22;5154475;27;20232;-58
2023/10/21 01:38:09;;;;;;;0.10;0.10;;;;;;;-144.59;100.00;63158.22;5155915;27;20675;-58
2023/10/21 01:40:58;;;;;;;0.10;0.10;;;;;;;-144.59;100.00;63158.22;5156087;27;20196;-58
2023/10/21 01:43:46;;;;;;;0.10;0.10;;;;;;;-144.59;100.00;63158.22;5155544;27;20315;-58
2023/10/21 01:46:33;;;;;;;0.10;0.10;;;;;;;-144.59;100.00;63158.22;5139835;27;20258;-58
2023/10/21 01:49:19;;;;;;;0.10;0.10;;;;;;;-144.59;100.00;63158.22;5155742;27;20185;-58
2023/10/21 01:52:06;;;;;;;0.10;0.10;;;;;;;-144.59;100.00;63158.22;5154452;27;20197;-58
2023/10/21 01:54:54;;;;;;;0.10;0.10;;;;;;;-144.59;100.00;63158.22;5155373;27;20246;-58
2023/10/21 01:57:42;;;;;;;0.10;0.10;;;;;;;-144.59;100.00;63158.22;5139932;27;20258;-58
2023/10/21 02:00:29;;;;;;;0.10;0.10;;;;;;;-144.59;100.00;63158.22;5139874;27;20242;-58
2023/10/21 02:03:16;;;;;;;0.00;0.00;;;;;;;-144.59;100.00;63158.22;5155291;27;20257;-57
2023/10/21 02:06:06;;;;;;;0.10;0.10;;;;;;;-144.59;100.00;63158.22;5138265;27;20201;-57
2023/10/21 02:08:55;;;;;;;0.10;0.10;;;;;;;-144.59;100.00;63158.22;5155131;27;20193;-57
2023/10/21 02:11:42;;;;;;;0.10;0.10;;;;;;;-144.59;100.00;63158.22;5154931;27;20200;-58
2023/10/21 02:14:30;;;;;;;0.10;0.10;;;;;;;-144.59;100.00;63158.22;5139162;27;20231;-57
2023/10/21 02:17:17;;;;;;;0.10;0.10;;;;;;;-144.59;100.00;63158.22;5139417;27;20207;-58
2023/10/21 02:20:05;;;;;;;0.10;0.10;;;;;;;-144.59;100.00;63158.22;5137886;27;20575;-57
2023/10/21 02:22:52;;;;;;;0.00;0.00;;;;;;;-144.59;100.00;63158.22;5154876;27;20185;-58
2023/10/21 02:25:39;;;;;;;0.10;0.10;;;;;;;-144.59;100.00;63158.22;5154861;27;20188;-58
2023/10/21 02:28:26;;;;;;;0.10;0.10;;;;;;;-144.59;100.00;63158.22;5154971;27;20266;-58
2023/10/21 02:31:14;;;;;;;0.10;0.10;;;;;;;-144.59;100.00;63158.22;5138945;27;20193;-58
2023/10/21 02:34:01;;;;;;;0.10;0.10;;;;;;;-144.59;100.00;63158.22;5147298;27;20279;-58
2023/10/21 02:36:49;;;;;;;0.10;0.10;;;;;;;-144.59;100.00;63158.22;5132486;27;20197;-58
2023/10/21 02:39:37;;;;;;;0.10;0.10;;;;;;;-144.59;100.00;63158.22;5133908;27;20189;-58
2023/10/21 02:42:24;;;;;;;0.10;0.10;;;;;;;-144.59;100.00;63158.22;5133832;27;20196;-58
2023/10/21 02:45:11;;;;;;;0.00;0.00;;;;;;;-144.59;100.00;63158.22;5134024;27;20307;-58
2023/10/21 02:47:59;;;;;;;0.00;0.00;;;;;;;-144.59;100.00;63158.22;5133965;27;20200;-58
2023/10/21 02:50:46;;;;;;;0.10;0.10;;;;;;;-144.59;100.00;63158.22;5116946;27;20713;-58
2023/10/21 02:53:33;;;;;;;0.10;0.10;;;;;;;-144.59;100.00;63158.22;5117800;27;20212;-58
2023/10/21 02:56:20;;;;;;;0.10;0.10;;;;;;;-144.59;100.00;63158.22;5118089;27;20193;-58
2023/10/21 02:59:07;;;;;;;0.10;0.10;;;;;;;-144.59;100.00;63158.22;5133556;27;20303;-57
2023/10/21 03:01:55;;;;;;;0.10;0.10;;;;;;;-144.59;100.00;63158.22;5133683;27;20476;-58
2023/10/21 03:04:43;;;;;;;0.10;0.10;;;;;;;-144.59;100.00;63158.22;5133625;28;20190;-58
2023/10/21 03:07:30;;;;;;;0.10;0.10;;;;;;;-144.59;100.00;63158.22;5133740;28;20213;-58
2023/10/21 03:10:17;;;;;;;0.10;0.10;;;;;;;-144.59;100.00;63158.22;5133506;28;20201;-58
2023/10/21 03:13:04;;;;;;;0.10;0.10;;;;;;;-144.59;100.00;63158.22;5133668;28;20192;-58
2023/10/21 03:15:51;;;;;;;0.10;0.10;;;;;;;-144.59;100.00;63158.22;5117951;28;20197;-58
2023/10/21 03:18:40;;;;;;;0.10;0.10;;;;;;;-144.59;100.00;63158.22;5118168;28;20190;-58
2023/10/21 03:21:29;;;;;;;0.10;0.10;;;;;;;-144.59;100.00;63158.22;5132407;28;20196;-58
2023/10/21 03:24:15;;;;;;;0.10;0.10;;;;;;;-144.59;100.00;63158.22;5133593;28;20189;-58
2023/10/21 03:27:02;;;;;;;0.10;0.10;;;;;;;-144.59;100.00;63158.22;5133359;28;20255;-58
2023/10/21 03:29:49;;;;;;;0.10;0.10;;;;;;;-144.59;100.00;63158.22;5117737;28;20201;-58
2023/10/21 03:32:36;;;;;;;0.10;0.10;;;;;;;-144.59;100.00;63158.22;5135200;27;20193;-58
2023/10/21 03:35:23;;;;;;;0.10;0.10;;;;;;;-144.59;100.00;63158.22;5135781;27;20240;-58
2023/10/21 03:38:11;;;;;;;0.10;0.10;;;;;;;-144.59;100.00;63158.22;5137335;27;20201;-58
2023/10/21 03:41:01;;;;;;;0.10;0.10;;;;;;;-144.59;100.00;63158.22;5137115;27;20189;-58
2023/10/21 03:43:48;;;;;;;0.10;0.10;;;;;;;-144.59;100.00;63158.22;5137597;27;20193;-58
2023/10/21 03:46:36;;;;;;;0.10;0.10;;;;;;;-144.59;100.00;63158.22;5121833;27;20205;-58
2023/10/21 03:49:23;;;;;;;0.10;0.10;;;;;;;-144.59;100.00;63158.22;5137305;27;20196;-58
2023/10/21 03:52:10;;;;;;;0.10;0.10;;;;;;;-144.59;100.00;63158.22;5136646;27;20190;-58
2023/10/21 03:54:59;;;;;;;0.10;0.10;;;;;;;-144.59;100.00;63158.22;5121405;27;20327;-58
2023/10/21 03:57:48;;;;;;;0.10;0.10;;;;;;;-144.59;100.00;63158.22;5136910;27;20251;-58
2023/10/21 04:00:35;;;;;;;0.10;0.10;;;;;;;-144.59;100.00;63158.22;5137044;27;20197;-58
2023/10/21 04:03:22;;;;;;;0.10;0.10;;;;;;;-144.59;100.00;63158.22;5136927;27;20193;-58
2023/10/21 04:06:11;;;;;;;0.10;0.10;;;;;;;-144.59;100.00;63158.22;5135230;27;20304;-58
2023/10/21 04:08:58;;;;;;;0.10;0.10;;;;;;;-144.59;100.00;63158.22;5136762;27;20194;-58
2023/10/21 04:11:46;;;;;;;0.10;0.10;;;;;;;-144.59;100.00;63158.22;5136821;27;20201;-58
2023/10/21 04:14:34;;;;;;;0.10;0.10;;;;;;;-144.59;100.00;63158.22;5136314;27;20687;-57
2023/10/21 04:17:20;;;;;;;0.00;0.00;;;;;;;-144.59;100.00;63158.22;5136807;27;20220;-58
2023/10/21 04:20:08;;;;;;;0.10;0.10;;;;;;;-144.59;100.00;63158.22;5135371;27;20205;-58
2023/10/21 04:22:56;;;;;;;0.10;0.10;;;;;;;-144.59;100.00;63158.22;5136782;27;20193;-58
2023/10/21 04:25:43;;;;;;;0.10;0.10;;;;;;;-144.59;100.00;63158.22;5136784;27;20221;-58
2023/10/21 04:28:31;;;;;;;0.10;0.10;;;;;;;-144.59;100.00;63158.22;5136610;27;20225;-58
2023/10/21 04:31:17;;;;;;;0.10;0.10;;;;;;;-144.59;100.00;63158.22;5130434;27;20197;-58
2023/10/21 04:34:05;;;;;;;0.10;0.10;;;;;;;-144.59;100.00;63158.22;5136078;27;20233;-58
2023/10/21 04:36:51;;;;;;;0.10;0.10;;;;;;;-144.59;100.00;63158.22;5134949;27;20197;-58
2023/10/21 04:39:39;;;;;;;0.10;0.10;;;;;;;-144.59;100.00;63158.22;5136211;27;20213;-58
2023/10/21 04:42:26;;;;;;;0.10;0.10;;;;;;;-144.59;100.00;63158.22;5136257;27;20307;-58
2023/10/21 04:45:14;;;;;;;0.10;0.10;;;;;;;-144.59;100.00;63158.22;5135031;27;20193;-57
2023/10/21 04:48:01;;;;;;;0.10;0.10;;;;;;;-144.59;100.00;63158.22;5136039;27;20189;-57
2023/10/21 04:50:48;;;;;;;0.10;0.10;;;;;;;-144.59;100.00;63158.22;5134730;27;20213;-58
2023/10/21 04:53:35;;;;;;;0.10;0.10;;;;;;;-144.59;100.00;63158.22;5135867;27;20676;-58
2023/10/21 04:56:22;;;;;;;0.10;0.10;;;;;;;-144.59;100.00;63158.22;5135280;27;20206;-58
2023/10/21 04:59:09;;;;;;;0.10;0.10;;;;;;;-144.59;100.00;63158.22;5135757;27;20184;-57
2023/10/21 05:01:56;;;;;;;0.10;0.10;;;;;;;-144.59;100.00;63158.22;5135908;27;20194;-58
2023/10/21 05:04:43;;;;;;;0.10;0.10;;;;;;;-144.59;100.00;63158.22;5135158;27;20190;-58
2023/10/21 05:07:31;;;;;;;0.10;0.10;;;;;;;-144.59;100.00;63158.22;5135914;27;20235;-58
2023/10/21 05:10:19;;;;;;;0.10;0.10;;;;;;;-144.59;100.00;63158.22;5135600;27;20196;-58
2023/10/21 05:13:05;;;;;;;0.10;0.10;;;;;;;-144.59;100.00;63158.22;5135458;27;20212;-58
2023/10/21 05:15:52;;;;;;;0.10;0.10;;;;;;;-144.59;100.00;63158.22;5135383;27;20274;-58
2023/10/21 05:18:40;;;;;;;0.10;0.10;;;;;;;-144.59;100.00;63158.22;5135163;27;20323;-58
2023/10/21 05:21:27;;;;;;;0.10;0.10;;;;;;;-144.59;100.00;63158.22;5133905;27;20197;-58
2023/10/21 05:24:14;;;;;;;0.10;0.10;;;;;;;-144.59;100.00;63158.22;5135086;27;20206;-58
2023/10/21 05:27:01;;;;;;;0.10;0.10;;;;;;;-144.59;100.00;63158.22;5135328;27;20296;-58
2023/10/21 05:29:48;;;;;;;0.10;0.10;;;;;;;-144.59;100.00;63158.22;5134997;27;20196;-58
2023/10/21 05:32:36;;;;;;;0.10;0.10;;;;;;;-144.59;100.00;63158.22;5134919;27;20223;-58
2023/10/21 05:35:25;;;;;;;0.10;0.10;;;;;;;-144.59;100.00;63158.22;5133349;27;20225;-58
2023/10/21 05:38:11;;;;;;;0.10;0.10;;;;;;;-144.59;100.00;63158.22;5134877;27;20201;-58
2023/10/21 05:40:58;;;;;;;0.10;0.10;;;;;;;-144.59;100.00;63158.22;5134779;27;20193;-58
2023/10/21 05:43:46;;;;;;;0.10;0.10;;;;;;;-144.59;100.00;63158.22;5134921;27;20185;-58
2023/10/21 05:46:34;;;;;;;0.03;0.03;;;;;;;-144.59;100.00;63158.22;5134729;27;20193;-58
2023/10/21 05:49:22;;;;;;;0.10;0.10;;;;;;;-144.59;100.00;63158.22;5134940;27;20263;-58
2023/10/21 05:52:10;;;;;;;0.10;0.10;;;;;;;-144.59;100.00;63158.22;5134253;27;20631;-58
2023/10/21 05:54:57;;;;;;;0.10;0.10;;;;;;;-144.59;100.00;63158.22;5134549;27;20206;-58
2023/10/21 05:57:44;;;;;;;0.10;0.10;;;;;;;-144.59;100.00;63158.22;5134606;27;20369;-58
2023/10/21 06:00:31;;;;;;;0.10;0.10;;;;;;;-144.59;100.00;63158.22;5134561;27;20197;-58
2023/10/21 06:03:18;;;;;;;0.10;0.10;;;;;;;-144.59;100.00;63158.22;5128643;27;20200;-58
2023/10/21 06:06:05;;;;;;;0.10;0.10;;;;;;;-144.59;100.00;63158.22;5133190;27;20255;-58
2023/10/21 06:08:54;;;;;;;0.10;0.10;;;;;;;-144.59;100.00;63158.22;5134216;27;20194;-58
2023/10/21 06:11:41;;;;;;;0.10;0.10;;;;;;;-144.59;100.00;63158.22;5134277;27;20274;-58
2023/10/21 06:14:28;;;;;;;0.10;0.10;;;;;;;-144.59;100.00;63158.22;5134675;27;20674;-58
2023/10/21 06:17:15;;;;;;;0.10;0.10;;;;;;;-144.59;100.00;63158.22;5134087;27;20198;-58
2023/10/21 06:20:03;;;;;;;0.00;0.00;;;;;;;-144.59;100.00;63158.22;5131802;27;20739;-58
2023/10/21 06:22:49;;;;;;;0.10;0.10;;;;;;;-144.59;100.00;63158.22;5131649;27;20247;-59
2023/10/21 06:25:38;;;;;;;0.10;0.10;;;;;;;-144.59;100.00;63158.22;5133539;27;20194;-58
2023/10/21 06:28:25;;;;;;;0.10;0.10;;;;;;;-144.59;100.00;63158.22;5133661;27;20235;-58
2023/10/21 06:31:12;;;;;;;0.10;0.10;;;;;;;-144.59;100.00;63158.22;5133603;27;20556;-58
2023/10/21 06:33:59;;;;;;;0.10;0.10;;;;;;;-144.59;100.00;63158.22;5133290;27;20275;-58
2023/10/21 06:36:46;;;;;;;0.10;0.10;;;;;;;-144.59;100.00;63158.22;5131865;27;20280;-58
2023/10/21 06:39:33;;;;;;;0.10;0.10;;;;;;;-144.59;100.00;63158.22;5133656;27;20197;-58
2023/10/21 06:42:21;;;;;;;0.03;0.03;;;;;;;-144.59;100.00;63158.22;5133441;27;20308;-58
2023/10/21 06:45:09;;;;;;;0.10;0.10;;;;;;;-144.59;100.00;63158.22;5133519;27;20236;-58
2023/10/21 06:47:56;;;;;;;0.10;0.10;;;;;;;-144.59;100.00;63158.22;5132462;27;20193;-58
2023/10/21 06:50:43;;;;;;;0.10;0.10;;;;;;;-144.59;100.00;63158.22;5132144;27;20255;-58
2023/10/21 06:53:30;;;;;;;0.10;0.10;;;;;;;-144.59;100.00;63158.22;5133403;27;20197;-58
2023/10/21 06:56:17;;;;;;;0.10;0.10;;;;;;;-144.59;100.00;63158.22;5133586;27;20213;-57
2023/10/21 06:59:07;;;;;;;0.00;0.00;;;;;;;-144.59;100.00;63158.22;5133532;27;20190;-57
2023/10/21 07:01:54;;;;;;;0.10;0.10;;;;;;;-144.59;100.00;63158.22;5133270;27;20217;-58
2023/10/21 07:04:41;;;;;;;0.10;0.10;;;;;;;-144.59;100.00;63158.22;5133111;28;20193;-58
2023/10/21 07:07:28;;;;;;;0.10;0.10;;;;;;;-144.59;100.00;63158.22;5132499;27;20185;-57
2023/10/21 07:10:15;;;;;;;0.10;0.10;;;;;;;-144.59;100.00;63158.22;5133183;28;20212;-58
2023/10/21 07:13:03;;;;;;;0.10;0.10;;;;;;;-144.59;100.00;63158.22;5133302;28;20284;-58
2023/10/21 07:15:52;;;;;;;0.00;0.00;;;;;;;-144.59;100.00;63158.22;5132946;28;20267;-58
2023/10/21 07:18:39;;;;;;;0.10;0.10;;;;;;;-144.59;100.00;63158.22;5133103;28;20239;-57
2023/10/21 07:21:25;;;;;;;0.10;0.10;;;;;;;-144.59;100.00;63158.22;5132004;28;20201;-58
2023/10/21 07:24:12;;;;;;;0.10;0.10;;;;;;;-144.59;100.00;63158.22;5133196;28;20213;-58
2023/10/21 07:27:01;;;;;;;0.10;0.10;;;;;;;-144.59;100.00;63158.22;5133079;28;20209;-57
2023/10/21 07:29:48;;;;;;;0.10;0.10;;;;;;;-144.59;100.00;63158.22;5133004;28;20259;-57
2023/10/21 07:32:36;;;;;;;0.10;0.10;;;;;;;-144.59;100.00;63158.22;5132984;28;20256;-58
2023/10/21 07:35:23;;;;;;;0.10;0.10;;;;;;;-144.59;100.00;63158.22;5131659;28;20228;-58
2023/10/21 07:38:10;;;;;;;0.10;0.10;;;;;;;-144.59;100.00;63158.22;5117457;28;20263;-58
2023/10/21 07:40:56;;;;;;;0.00;0.00;;;;;;;-144.59;100.00;63158.22;5133080;28;20188;-57
2023/10/21 07:43:44;;;;;;;0.00;0.00;;;;;;;-144.59;100.00;63158.22;5131570;28;20197;-58
2023/10/21 07:46:30;;;;;;;0.10;0.10;;;;;;;-144.59;100.00;63158.22;5133509;28;20204;-58
2023/10/21 07:49:19;;;;;;;0.10;0.10;;;;;;;-144.59;100.00;63158.22;5133124;28;20193;-58
2023/10/21 07:52:06;;;;;;;0.10;0.10;;;;;;;-144.59;100.00;63158.22;5132492;28;20201;-58
2023/10/21 07:54:54;;;;;;;0.00;0.00;;;;;;;-144.59;100.00;63158.22;5132937;28;20185;-58
2023/10/21 07:57:41;;;;;;;0.10;0.10;;;;;;;-144.59;100.00;63158.22;5132776;28;20213;-58
2023/10/21 08:00:29;;;;;;;0.00;0.00;;;;;;;-144.59;100.00;63158.22;5133292;28;20201;-58
2023/10/21 08:03:15;;;;;;;0.10;0.10;;;;;;;-144.59;100.00;63158.22;5133133;28;20202;-57
2023/10/21 08:06:04;;;;;;;0.10;0.10;;;;;;;-144.59;100.00;63158.22;5131707;28;20196;-58
2023/10/21 08:08:51;;;;;;;0.00;0.00;;;;;;;-144.59;100.00;63158.22;5117532;28;20243;-58
2023/10/21 08:11:37;;;;;;;0.10;0.10;;;;;;;-144.59;100.00;63158.22;5132963;28;20189;-58
2023/10/21 08:14:27;;;;;;;0.00;0.00;;;;;;;-144.59;100.00;63158.22;5132742;28;20201;-58
2023/10/21 08:17:14;;;;;;;0.10;0.10;;;;;;;-144.59;100.00;63158.22;5132646;28;20216;-58
2023/10/21 08:20:02;;;;;;;0.10;0.10;;;;;;;-144.59;100.00;63158.22;5135494;27;20773;-57
2023/10/21 08:22:49;;;;;;;0.00;0.00;;;;;;;-144.59;100.00;63158.22;5136779;27;20395;-58
2023/10/21 08:25:37;;;;;;;0.10;0.10;;;;;;;-144.59;100.00;63158.22;5133468;27;20704;-57
2023/10/21 08:28:24;;;;;;;0.10;0.10;;;;;;;-144.59;100.00;63158.22;5130976;27;20342;-57
2023/10/21 08:31:10;;;;;;;0.10;0.10;;;;;;;-144.59;100.00;63158.22;5128659;27;20300;-58
2023/10/21 08:33:58;;;;;;;0.10;0.10;;;;;;;-144.59;100.00;63158.22;5134416;27;20229;-58
2023/10/21 08:36:44;;;;;;;0.00;0.00;;;;;;;-144.59;100.00;63158.22;5134254;27;20224;-57
2023/10/21 08:39:34;;;;;;;0.10;0.10;;;;;;;-144.59;100.00;63158.22;5135356;27;20201;-57
2023/10/21 08:42:25;;;;;;;0.10;0.10;;;;;;;-144.59;100.00;63158.22;5135061;27;20201;-57
2023/10/21 08:45:33;;;;;;;0.00;0.00;;;;;;;-144.59;100.00;63158.22;5135486;27;20272;-57
2023/10/21 08:48:20;;;;;;;0.00;0.00;;;;;;;-144.59;100.00;63158.22;5134896;27;20194;-57
2023/10/21 08:51:09;;;;;;;0.10;0.10;;;;;;;-144.59;100.00;63158.22;5113547;28;20240;-58
2023/10/21 08:54:00;;;;;;;0.00;0.00;;;;;;;-144.59;100.00;63158.22;5114639;28;20190;-58
2023/10/21 08:56:48;;;;;;;0.10;0.10;;;;;;;-144.59;100.00;63158.22;5113812;28;20218;-57
2023/10/21 08:59:36;;;;;;;0.10;0.10;;;;;;;-144.59;100.00;63158.22;5114564;28;20187;-57
2023/10/21 09:02:25;;;;;;;0.10;0.10;;;;;;;-144.59;100.00;63158.22;5114284;28;20194;-57
2023/10/21 09:05:12;;;;;;;0.00;0.00;;;;;;;-144.59;100.00;63158.22;5113056;28;20236;-57
2023/10/21 09:07:59;;;;;;;0.00;0.00;;;;;;;-144.59;100.00;63158.22;5114808;28;20186;-57
2023/10/21 09:10:58;;;;;;;0.10;0.10;;;;;;;-144.59;100.00;63158.22;5113453;28;20210;-57
2023/10/21 09:13:47;;;;;;;0.10;0.10;;;;;;;-144.59;100.00;63158.22;5114443;28;20198;-57
2023/10/21 09:16:33;;;;;;;0.10;0.10;;;;;;;-144.59;100.00;63158.22;5114296;28;20206;-57
2023/10/21 09:19:26;;;;;;;0.10;0.10;;;;;;;-144.59;100.00;63158.22;5114016;28;20284;-57
2023/10/21 09:22:22;;;;;;;0.00;0.00;;;;;;;-144.59;100.00;63158.22;5114466;28;20198;-58
2023/10/21 09:25:18;;;;;;;0.10;0.10;;;;;;;-144.59;100.00;63158.22;5113646;28;20197;-57
2023/10/21 09:28:06;;;;;;;0.10;0.10;;;;;;;-144.59;100.00;63158.22;5114380;28;20328;-57
2023/10/21 09:30:58;;;;;;;0.10;0.10;;;;;;;-144.59;100.00;63158.22;5113791;28;20726;-57
2023/10/21 09:33:55;;;;;;;0.10;0.10;;;;;;;-144.59;100.00;63158.22;5113333;28;20234;-57
2023/10/21 09:36:42;;;;;;;0.10;0.10;;;;;;;-144.59;100.00;63158.22;5112529;28;20211;-57
2023/10/21 09:39:32;;;;;;;0.10;0.10;;;;;;;-144.59;100.00;63158.22;5113667;28;20677;-58
2023/10/21 09:42:21;;;;;;;0.10;0.10;;;;;;;-144.59;100.00;63158.22;5070901;28;20238;-58
2023/10/21 09:45:13;;;;;;;0.00;0.00;;;;;;;-144.59;100.00;63158.22;5070774;28;20326;-58
2023/10/21 09:48:08;;;;;;;0.10;0.10;;;;;;;-144.59;100.00;63158.22;5070907;28;20184;-58
2023/10/21 09:50:59;;;;;;;0.10;0.10;;;;;;;-144.59;100.00;63158.22;5069826;28;20204;-57
2023/10/21 09:53:50;;;;;;;0.10;0.10;;;;;;;-144.59;100.00;63158.22;5057430;28;20195;-57
2023/10/21 09:56:38;;;;;;;0.10;0.10;;;;;;;-144.59;100.00;63158.22;5071129;28;20200;-57
2023/10/21 09:59:25;;;;;;;0.00;0.00;;;;;;;-144.59;100.00;63158.22;5071492;28;20196;-57
2023/10/21 10:02:12;;;;;;;0.10;0.10;;;;;;;-144.59;100.00;63158.22;5071285;28;20382;-57
2023/10/21 10:05:06;;;;;;;0.10;0.10;;;;;;;-144.59;100.00;63158.22;5069683;28;20514;-57
2023/10/21 10:07:53;;;;;;;0.10;0.10;;;;;;;-144.59;100.00;63158.22;5071317;28;20188;-56
2023/10/21 10:10:41;;;;;;;0.10;0.10;;;;;;;-144.59;100.00;63158.22;5071316;28;20223;-57
2023/10/21 10:13:28;;;;;;;0.10;0.10;;;;;;;-144.59;100.00;63158.22;5091560;28;20677;-57
2023/10/21 10:16:24;;;;;;;0.10;0.10;;;;;;;-144.59;100.00;63158.22;5114004;28;20751;-57
2023/10/21 10:19:12;;;;;;;0.00;0.00;;;;;;;-144.59;100.00;63158.22;5113909;28;20183;-57
2023/10/21 10:22:17;;;;;;;0.00;0.00;;;;;;;-144.59;100.00;63158.22;5112927;28;20289;-57
2023/10/21 10:25:10;;;;;;;0.10;0.10;;;;;;;-144.59;100.00;63158.22;5113747;28;20185;-57
2023/10/21 10:28:00;;;;;;;0.07;0.07;;;;;;;-144.59;100.00;63158.22;5113511;28;20194;-57
2023/10/21 10:30:50;;;;;;;0.00;0.00;;;;;;;-144.59;100.00;63158.22;5113643;28;20726;-58
2023/10/21 10:33:38;;;;;;;0.10;0.10;;;;;;;-144.59;100.00;63158.22;5113609;28;20292;-59
2023/10/21 10:36:29;;;;;;;0.00;0.00;;;;;;;-144.59;100.00;63158.22;5112222;28;20191;-58
2023/10/21 10:39:41;;;;;;;0.10;0.10;;;;;;;-144.59;100.00;63158.22;5113662;28;20354;-59
2023/10/21 10:42:29;;;;;;;0.10;0.10;;;;;;;-144.59;100.00;63158.22;5112461;28;20271;-58
2023/10/21 10:45:16;;;;;;;0.00;0.00;;;;;;;-144.59;100.00;63158.22;5113556;28;20202;-58
2023/10/21 10:48:04;;;;;;;0.10;0.10;;;;;;;-144.59;100.00;63158.22;5113360;28;20186;-58
2023/10/21 10:50:58;;;;;;;0.10;0.10;;;;;;;-144.59;100.00;63158.22;5111964;28;20194;-58
2023/10/21 10:53:46;;;;;;;0.10;0.10;;;;;;;-144.59;100.00;63158.22;5113320;28;20198;-58
2023/10/21 10:56:43;;;;;;;0.10;0.10;;;;;;;-144.59;100.00;63158.22;5113324;28;20256;-58
2023/10/21 10:59:31;;;;;;;0.10;0.10;;;;;;;-144.59;100.00;63158.22;5113401;28;20202;-58
2023/10/21 11:02:18;;;;;;;0.10;0.10;;;;;;;-144.59;100.00;63158.22;5113326;28;20203;-58
2023/10/21 11:05:15;;;;;;;0.10;0.10;;;;;;;-144.59;100.00;63158.22;5111920;28;20333;-58
2023/10/21 11:08:04;;;;;;;0.00;0.00;;;;;;;-144.59;100.00;63158.22;5111669;28;20198;-58
2023/10/21 11:10:53;;;;;;;0.10;0.10;;;;;;;-144.59;100.00;63158.22;5132028;28;20197;-58
2023/10/21 11:13:43;;;;;;;0.10;0.10;;;;;;;-144.59;100.00;63158.22;5133095;28;20189;-58
2023/10/21 11:16:30;;;;;;;0.03;0.03;;;;;;;-144.59;100.00;63158.22;5132603;28;20189;-58
2023/10/21 11:19:17;;;;;;;0.07;0.07;;;;;;;-144.59;100.00;63158.22;5132484;28;20209;-58
2023/10/21 11:22:07;;;;;;;0.10;0.10;;;;;;;-144.59;100.00;63158.22;5132761;27;20201;-58
2023/10/21 11:24:55;;;;;;;0.10;0.10;;;;;;;-144.59;100.00;63158.22;5132672;27;20201;-58
2023/10/21 11:27:43;;;;;;;0.10;0.10;;;;;;;-144.59;100.00;63158.22;5133573;27;20224;-58
2023/10/21 11:30:31;;;;;;;0.03;0.03;;;;;;;-144.59;100.00;63158.22;5133438;28;20303;-58
2023/10/21 11:33:21;;;;;;;0.10;0.10;;;;;;;-144.59;100.00;63158.22;5133316;28;20269;-58
2023/10/21 11:36:10;;;;;;;0.00;0.00;;;;;;;-144.59;100.00;63158.22;5132234;28;20261;-57
2023/10/21 11:38:56;;;;;;;0.10;0.10;;;;;;;-144.59;100.00;63158.22;5133235;27;20339;-58
2023/10/21 11:41:45;;;;;;;0.10;0.10;;;;;;;-144.59;100.00;63158.22;5133487;28;20210;-58
2023/10/21 11:44:32;;;;;;;0.00;0.00;;;;;;;-144.59;100.00;63158.22;5133500;28;20558;-58
2023/10/21 11:47:23;;;;;;;0.10;0.10;;;;;;;-144.59;100.00;63158.22;5133267;28;20197;-58
2023/10/21 11:50:10;;;;;;;0.10;0.10;;;;;;;-144.59;100.00;63158.22;5132102;27;20246;-58
2023/10/21 11:53:01;;;;;;;0.00;0.00;;;;;;;-144.59;100.00;63158.22;5133985;27;20608;-58
2023/10/21 12:12:08;;;;;;;0.00;0.00;;;;;;;-144.59;100.00;63158.22;5136789;27;20192;-58
2023/10/21 12:21:41;;;;;;;0.00;0.00;;;;;;;-144.59;100.00;63158.22;5135481;27;20271;-58
2023/10/21 12:34:19;;;;;;;0.10;0.10;;;;;;;-144.59;100.00;63158.22;5136451;27;20229;-58
2023/10/21 12:37:20;;;;;;;0.10;0.10;;;;;;;-144.59;100.00;63158.22;5136453;27;20200;-58
2023/10/21 12:43:24;;;;;;;0.10;0.10;;;;;;;-144.59;100.00;63158.22;5137114;27;20192;-58
2023/10/21 12:46:22;;;;;;;0.10;0.10;;;;;;;-144.59;100.00;63158.22;5136329;27;20196;-58
2023/10/21 12:49:16;;;;;;;0.10;0.10;;;;;;;-144.59;100.00;63158.22;5135907;27;20185;-58
2023/10/21 12:52:13;;;;;;;0.03;0.03;;;;;;;-144.59;100.00;63158.22;5136301;27;20266;-58
2023/10/21 12:55:00;;;;;;;0.10;0.10;;;;;;;-144.59;100.00;63158.22;5136117;27;20255;-58
2023/10/21 12:57:49;;;;;;;0.10;0.10;;;;;;;-144.59;100.00;63158.22;5136106;27;20201;-58
2023/10/21 13:00:37;;;;;;;0.10;0.10;;;;;;;-144.59;100.00;63158.22;5136188;27;20702;-58
2023/10/21 13:03:23;;;;;;;0.10;0.10;;;;;;;-144.59;100.00;63158.22;5136050;27;20265;-58
2023/10/21 13:06:11;;;;;;;0.10;0.10;;;;;;;-144.59;100.00;63158.22;5133543;27;20200;-58
2023/10/21 13:08:59;;;;;;;0.10;0.10;;;;;;;-144.59;100.00;63158.22;5135876;27;20201;-58
2023/10/21 13:11:48;;;;;;;0.10;0.10;;;;;;;-144.59;100.00;63158.22;5136013;27;20780;-58
2023/10/21 13:14:35;;;;;;;0.10;0.10;;;;;;;-144.59;100.00;63158.22;5135892;27;20267;-58
2023/10/21 13:17:23;;;;;;;0.10;0.10;;;;;;;-144.59;100.00;63158.22;5135810;27;20194;-58
2023/10/21 13:20:16;;;;;;;0.10;0.10;;;;;;;-144.59;100.00;63158.22;5134285;27;20213;-58